sensor_id;sensor_type;location;lat;lon;timestamp;temperature;humidity
39925;DHT22;25592;49.986;11.618;2023-07-22T00:00:20;19.60;92.40
39925;DHT22;25592;49.986;11.618;2023-07-22T00:03:07;19.60;92.20
39925;DHT22;25592;49.986;11.618;2023-07-22T00:06:03;19.60;92.40
39925;DHT22;25592;49.986;11.618;2023-07-22T00:08:50;19.60;92.60
39925;DHT22;25592;49.986;11.618;2023-07-22T00:11:35;19.50;92.30
39925;DHT22;25592;49.986;11.618;2023-07-22T00:14:21;19.50;92.40
39925;DHT22;25592;49.986;11.618;2023-07-22T00:17:06;19.50;92.60
39925;DHT22;25592;49.986;11.618;2023-07-22T00:19:52;19.50;92.80
39925;DHT22;25592;49.986;11.618;2023-07-22T00:22:38;19.50;92.40
39925;DHT22;25592;49.986;11.618;2023-07-22T00:25:27;19.50;92.40
39925;DHT22;25592;49.986;11.618;2023-07-22T00:28:13;19.40;92.30
39925;DHT22;25592;49.986;11.618;2023-07-22T00:30:58;19.40;92.30
39925;DHT22;25592;49.986;11.618;2023-07-22T00:33:45;19.40;92.10
39925;DHT22;25592;49.986;11.618;2023-07-22T00:36:31;19.50;92.40
39925;DHT22;25592;49.986;11.618;2023-07-22T00:39:17;19.50;92.40
39925;DHT22;25592;49.986;11.618;2023-07-22T00:42:03;19.50;92.40
39925;DHT22;25592;49.986;11.618;2023-07-22T00:44:49;19.50;92.10
39925;DHT22;25592;49.986;11.618;2023-07-22T00:47:35;19.50;92.60
39925;DHT22;25592;49.986;11.618;2023-07-22T00:50:21;19.50;92.40
39925;DHT22;25592;49.986;11.618;2023-07-22T00:53:08;19.50;92.40
39925;DHT22;25592;49.986;11.618;2023-07-22T00:55:54;19.50;92.30
39925;DHT22;25592;49.986;11.618;2023-07-22T00:58:40;19.50;92.60
39925;DHT22;25592;49.986;11.618;2023-07-22T01:01:25;19.50;92.40
39925;DHT22;25592;49.986;11.618;2023-07-22T01:04:13;19.50;92.00
39925;DHT22;25592;49.986;11.618;2023-07-22T01:06:58;19.50;92.60
39925;DHT22;25592;49.986;11.618;2023-07-22T01:09:44;19.50;92.50
39925;DHT22;25592;49.986;11.618;2023-07-22T01:12:30;19.40;92.70
39925;DHT22;25592;49.986;11.618;2023-07-22T01:15:15;19.40;92.40
39925;DHT22;25592;49.986;11.618;2023-07-22T01:18:02;19.40;92.50
39925;DHT22;25592;49.986;11.618;2023-07-22T01:20:48;19.40;92.60
39925;DHT22;25592;49.986;11.618;2023-07-22T01:23:34;19.40;93.00
39925;DHT22;25592;49.986;11.618;2023-07-22T01:26:20;19.40;92.80
39925;DHT22;25592;49.986;11.618;2023-07-22T01:29:06;19.40;93.10
39925;DHT22;25592;49.986;11.618;2023-07-22T01:31:53;19.40;92.90
39925;DHT22;25592;49.986;11.618;2023-07-22T01:34:39;19.40;92.60
39925;DHT22;25592;49.986;11.618;2023-07-22T01:37:24;19.40;92.90
39925;DHT22;25592;49.986;11.618;2023-07-22T01:40:11;19.40;93.00
39925;DHT22;25592;49.986;11.618;2023-07-22T01:42:57;19.40;92.80
39925;DHT22;25592;49.986;11.618;2023-07-22T01:45:43;19.30;93.10
39925;DHT22;25592;49.986;11.618;2023-07-22T01:48:28;19.40;93.00
39925;DHT22;25592;49.986;11.618;2023-07-22T01:51:14;19.40;92.50
39925;DHT22;25592;49.986;11.618;2023-07-22T01:53:59;19.40;93.20
39925;DHT22;25592;49.986;11.618;2023-07-22T01:56:46;19.30;93.20
39925;DHT22;25592;49.986;11.618;2023-07-22T01:59:31;19.30;93.00
39925;DHT22;25592;49.986;11.618;2023-07-22T02:02:17;19.30;92.90
39925;DHT22;25592;49.986;11.618;2023-07-22T02:05:02;19.20;93.40
39925;DHT22;25592;49.986;11.618;2023-07-22T02:07:48;19.10;93.40
39925;DHT22;25592;49.986;11.618;2023-07-22T02:10:33;19.00;93.60
39925;DHT22;25592;49.986;11.618;2023-07-22T02:13:19;19.00;93.70
39925;DHT22;25592;49.986;11.618;2023-07-22T02:16:05;19.00;93.80
39925;DHT22;25592;49.986;11.618;2023-07-22T02:18:50;19.00;93.80
39925;DHT22;25592;49.986;11.618;2023-07-22T02:21:35;19.00;93.60
39925;DHT22;25592;49.986;11.618;2023-07-22T02:24:22;19.00;93.80
39925;DHT22;25592;49.986;11.618;2023-07-22T02:27:07;19.00;93.70
39925;DHT22;25592;49.986;11.618;2023-07-22T02:29:53;19.00;93.90
39925;DHT22;25592;49.986;11.618;2023-07-22T02:32:40;19.00;94.00
39925;DHT22;25592;49.986;11.618;2023-07-22T02:35:25;19.00;93.80
39925;DHT22;25592;49.986;11.618;2023-07-22T02:38:11;19.00;94.00
39925;DHT22;25592;49.986;11.618;2023-07-22T02:41:04;19.00;94.00
39925;DHT22;25592;49.986;11.618;2023-07-22T02:43:51;19.00;93.80
39925;DHT22;25592;49.986;11.618;2023-07-22T02:46:37;19.00;93.70
39925;DHT22;25592;49.986;11.618;2023-07-22T02:49:22;19.10;93.50
39925;DHT22;25592;49.986;11.618;2023-07-22T02:52:09;19.00;93.90
39925;DHT22;25592;49.986;11.618;2023-07-22T02:55:10;19.20;93.20
39925;DHT22;25592;49.986;11.618;2023-07-22T02:57:56;19.10;93.70
39925;DHT22;25592;49.986;11.618;2023-07-22T03:00:41;19.10;93.90
39925;DHT22;25592;49.986;11.618;2023-07-22T03:03:28;19.10;93.20
39925;DHT22;25592;49.986;11.618;2023-07-22T03:06:14;19.10;92.90
39925;DHT22;25592;49.986;11.618;2023-07-22T03:08:59;19.20;93.00
39925;DHT22;25592;49.986;11.618;2023-07-22T03:11:44;19.10;93.20
39925;DHT22;25592;49.986;11.618;2023-07-22T03:14:30;19.10;93.70
39925;DHT22;25592;49.986;11.618;2023-07-22T03:17:22;19.10;93.30
39925;DHT22;25592;49.986;11.618;2023-07-22T03:20:08;19.10;93.50
39925;DHT22;25592;49.986;11.618;2023-07-22T03:22:59;19.10;93.30
39925;DHT22;25592;49.986;11.618;2023-07-22T03:25:45;19.00;93.60
39925;DHT22;25592;49.986;11.618;2023-07-22T03:28:30;19.00;93.80
39925;DHT22;25592;49.986;11.618;2023-07-22T03:31:16;19.10;93.60
39925;DHT22;25592;49.986;11.618;2023-07-22T03:34:01;19.00;93.90
39925;DHT22;25592;49.986;11.618;2023-07-22T03:36:47;19.00;94.00
39925;DHT22;25592;49.986;11.618;2023-07-22T03:39:32;19.00;93.90
39925;DHT22;25592;49.986;11.618;2023-07-22T03:42:18;19.10;93.70
39925;DHT22;25592;49.986;11.618;2023-07-22T03:45:03;19.10;93.90
39925;DHT22;25592;49.986;11.618;2023-07-22T03:47:55;19.00;94.10
39925;DHT22;25592;49.986;11.618;2023-07-22T03:50:41;19.10;93.80
39925;DHT22;25592;49.986;11.618;2023-07-22T03:53:27;19.10;94.20
39925;DHT22;25592;49.986;11.618;2023-07-22T03:56:12;19.10;93.20
39925;DHT22;25592;49.986;11.618;2023-07-22T03:58:58;19.10;93.70
39925;DHT22;25592;49.986;11.618;2023-07-22T04:01:43;19.10;93.50
39925;DHT22;25592;49.986;11.618;2023-07-22T04:04:29;19.00;94.00
39925;DHT22;25592;49.986;11.618;2023-07-22T04:07:14;19.10;93.80
39925;DHT22;25592;49.986;11.618;2023-07-22T04:09:59;19.10;93.50
39925;DHT22;25592;49.986;11.618;2023-07-22T04:12:45;19.00;94.00
39925;DHT22;25592;49.986;11.618;2023-07-22T04:15:31;19.00;94.00
39925;DHT22;25592;49.986;11.618;2023-07-22T04:18:17;19.00;93.90
39925;DHT22;25592;49.986;11.618;2023-07-22T04:21:03;19.10;93.80
39925;DHT22;25592;49.986;11.618;2023-07-22T04:23:48;19.10;93.80
39925;DHT22;25592;49.986;11.618;2023-07-22T04:26:34;19.00;94.00
39925;DHT22;25592;49.986;11.618;2023-07-22T04:29:19;19.00;94.20
39925;DHT22;25592;49.986;11.618;2023-07-22T04:32:05;19.00;94.40
39925;DHT22;25592;49.986;11.618;2023-07-22T04:34:51;18.90;94.20
39925;DHT22;25592;49.986;11.618;2023-07-22T04:37:36;18.90;94.10
39925;DHT22;25592;49.986;11.618;2023-07-22T04:40:22;18.90;94.40
39925;DHT22;25592;49.986;11.618;2023-07-22T04:43:10;18.90;94.30
39925;DHT22;25592;49.986;11.618;2023-07-22T04:45:56;18.90;93.40
39925;DHT22;25592;49.986;11.618;2023-07-22T04:48:41;19.00;93.80
39925;DHT22;25592;49.986;11.618;2023-07-22T04:51:26;18.90;93.60
39925;DHT22;25592;49.986;11.618;2023-07-22T04:54:12;18.90;94.40
39925;DHT22;25592;49.986;11.618;2023-07-22T04:56:57;19.00;93.80
39925;DHT22;25592;49.986;11.618;2023-07-22T04:59:44;19.00;93.90
39925;DHT22;25592;49.986;11.618;2023-07-22T05:02:30;19.00;93.90
39925;DHT22;25592;49.986;11.618;2023-07-22T05:05:16;19.00;93.70
39925;DHT22;25592;49.986;11.618;2023-07-22T05:08:02;18.90;93.80
39925;DHT22;25592;49.986;11.618;2023-07-22T05:10:47;18.80;93.80
39925;DHT22;25592;49.986;11.618;2023-07-22T05:13:33;18.80;93.90
39925;DHT22;25592;49.986;11.618;2023-07-22T05:16:18;18.80;93.80
39925;DHT22;25592;49.986;11.618;2023-07-22T05:19:04;18.80;93.80
39925;DHT22;25592;49.986;11.618;2023-07-22T05:21:50;18.80;93.80
39925;DHT22;25592;49.986;11.618;2023-07-22T05:24:35;18.80;93.50
39925;DHT22;25592;49.986;11.618;2023-07-22T05:27:21;18.80;93.50
39925;DHT22;25592;49.986;11.618;2023-07-22T05:30:07;18.70;93.80
39925;DHT22;25592;49.986;11.618;2023-07-22T05:33:08;18.70;93.80
39925;DHT22;25592;49.986;11.618;2023-07-22T05:35:53;18.70;93.50
39925;DHT22;25592;49.986;11.618;2023-07-22T05:38:39;18.70;93.30
39925;DHT22;25592;49.986;11.618;2023-07-22T05:41:26;18.70;93.50
39925;DHT22;25592;49.986;11.618;2023-07-22T05:44:11;18.80;93.50
39925;DHT22;25592;49.986;11.618;2023-07-22T05:46:57;18.70;93.10
39925;DHT22;25592;49.986;11.618;2023-07-22T05:49:42;18.70;93.40
39925;DHT22;25592;49.986;11.618;2023-07-22T05:52:28;18.70;93.10
39925;DHT22;25592;49.986;11.618;2023-07-22T05:55:13;18.60;93.50
39925;DHT22;25592;49.986;11.618;2023-07-22T05:57:58;18.60;93.30
39925;DHT22;25592;49.986;11.618;2023-07-22T06:00:50;18.40;93.80
39925;DHT22;25592;49.986;11.618;2023-07-22T06:03:37;18.50;93.40
39925;DHT22;25592;49.986;11.618;2023-07-22T06:06:22;18.30;93.30
39925;DHT22;25592;49.986;11.618;2023-07-22T06:09:08;18.30;93.50
39925;DHT22;25592;49.986;11.618;2023-07-22T06:11:54;18.50;93.80
39925;DHT22;25592;49.986;11.618;2023-07-22T06:14:39;18.50;94.10
39925;DHT22;25592;49.986;11.618;2023-07-22T06:17:25;18.60;93.50
39925;DHT22;25592;49.986;11.618;2023-07-22T06:20:11;18.60;93.60
39925;DHT22;25592;49.986;11.618;2023-07-22T06:22:56;18.60;93.40
39925;DHT22;25592;49.986;11.618;2023-07-22T06:25:42;18.60;93.40
39925;DHT22;25592;49.986;11.618;2023-07-22T06:28:27;18.70;93.30
39925;DHT22;25592;49.986;11.618;2023-07-22T06:31:13;18.70;92.80
39925;DHT22;25592;49.986;11.618;2023-07-22T06:33:58;18.50;93.50
39925;DHT22;25592;49.986;11.618;2023-07-22T06:36:45;18.50;92.90
39925;DHT22;25592;49.986;11.618;2023-07-22T06:39:30;18.50;92.20
39925;DHT22;25592;49.986;11.618;2023-07-22T06:42:16;18.70;92.10
39925;DHT22;25592;49.986;11.618;2023-07-22T06:45:01;18.70;92.00
39925;DHT22;25592;49.986;11.618;2023-07-22T06:47:47;19.00;92.10
39925;DHT22;25592;49.986;11.618;2023-07-22T06:50:32;19.10;92.40
39925;DHT22;25592;49.986;11.618;2023-07-22T06:53:18;19.20;91.10
39925;DHT22;25592;49.986;11.618;2023-07-22T06:56:04;19.30;90.60
39925;DHT22;25592;49.986;11.618;2023-07-22T06:58:49;19.40;90.60
39925;DHT22;25592;49.986;11.618;2023-07-22T07:01:36;19.40;90.90
39925;DHT22;25592;49.986;11.618;2023-07-22T07:04:21;19.50;90.80
39925;DHT22;25592;49.986;11.618;2023-07-22T07:07:07;19.70;90.90
39925;DHT22;25592;49.986;11.618;2023-07-22T07:09:53;19.60;90.20
39925;DHT22;25592;49.986;11.618;2023-07-22T07:12:38;19.70;90.30
39925;DHT22;25592;49.986;11.618;2023-07-22T07:15:24;19.50;86.50
39925;DHT22;25592;49.986;11.618;2023-07-22T07:18:09;19.40;85.90
39925;DHT22;25592;49.986;11.618;2023-07-22T07:20:55;19.30;87.60
39925;DHT22;25592;49.986;11.618;2023-07-22T07:23:40;19.40;88.60
39925;DHT22;25592;49.986;11.618;2023-07-22T07:26:26;19.60;87.60
39925;DHT22;25592;49.986;11.618;2023-07-22T07:29:18;19.60;87.80
39925;DHT22;25592;49.986;11.618;2023-07-22T07:32:23;19.70;86.00
39925;DHT22;25592;49.986;11.618;2023-07-22T07:35:09;19.60;84.40
39925;DHT22;25592;49.986;11.618;2023-07-22T07:37:55;19.30;82.90
39925;DHT22;25592;49.986;11.618;2023-07-22T07:40:40;19.20;82.00
39925;DHT22;25592;49.986;11.618;2023-07-22T07:43:26;19.10;82.50
39925;DHT22;25592;49.986;11.618;2023-07-22T07:46:16;19.20;81.60
39925;DHT22;25592;49.986;11.618;2023-07-22T07:49:06;19.20;80.50
39925;DHT22;25592;49.986;11.618;2023-07-22T07:51:52;19.30;81.60
39925;DHT22;25592;49.986;11.618;2023-07-22T07:54:37;19.30;81.90
39925;DHT22;25592;49.986;11.618;2023-07-22T07:57:23;19.30;81.50
39925;DHT22;25592;49.986;11.618;2023-07-22T08:00:08;19.40;80.60
39925;DHT22;25592;49.986;11.618;2023-07-22T08:02:54;19.50;80.60
39925;DHT22;25592;49.986;11.618;2023-07-22T08:05:40;19.40;80.10
39925;DHT22;25592;49.986;11.618;2023-07-22T08:08:26;19.50;79.30
39925;DHT22;25592;49.986;11.618;2023-07-22T08:11:12;19.40;80.60
39925;DHT22;25592;49.986;11.618;2023-07-22T08:14:00;19.60;80.70
39925;DHT22;25592;49.986;11.618;2023-07-22T08:16:46;19.50;80.10
39925;DHT22;25592;49.986;11.618;2023-07-22T08:19:32;19.70;81.10
39925;DHT22;25592;49.986;11.618;2023-07-22T08:22:18;19.90;78.00
39925;DHT22;25592;49.986;11.618;2023-07-22T08:25:03;20.10;77.00
39925;DHT22;25592;49.986;11.618;2023-07-22T08:27:49;20.30;76.40
39925;DHT22;25592;49.986;11.618;2023-07-22T08:30:35;20.30;74.40
39925;DHT22;25592;49.986;11.618;2023-07-22T08:33:21;20.20;74.40
39925;DHT22;25592;49.986;11.618;2023-07-22T08:36:19;20.20;74.50
39925;DHT22;25592;49.986;11.618;2023-07-22T08:39:05;20.10;74.50
39925;DHT22;25592;49.986;11.618;2023-07-22T08:41:52;20.10;75.10
39925;DHT22;25592;49.986;11.618;2023-07-22T08:44:43;20.20;74.60
39925;DHT22;25592;49.986;11.618;2023-07-22T08:47:29;20.00;75.70
39925;DHT22;25592;49.986;11.618;2023-07-22T08:50:20;19.90;77.10
39925;DHT22;25592;49.986;11.618;2023-07-22T08:53:06;20.00;77.60
39925;DHT22;25592;49.986;11.618;2023-07-22T08:55:51;20.00;79.00
39925;DHT22;25592;49.986;11.618;2023-07-22T08:58:38;20.10;77.90
39925;DHT22;25592;49.986;11.618;2023-07-22T09:01:24;20.10;77.20
39925;DHT22;25592;49.986;11.618;2023-07-22T09:04:09;20.20;78.40
39925;DHT22;25592;49.986;11.618;2023-07-22T09:06:55;20.10;76.60
39925;DHT22;25592;49.986;11.618;2023-07-22T09:09:41;20.20;77.00
39925;DHT22;25592;49.986;11.618;2023-07-22T09:12:26;20.30;76.20
39925;DHT22;25592;49.986;11.618;2023-07-22T09:15:12;20.30;77.40
39925;DHT22;25592;49.986;11.618;2023-07-22T09:17:58;20.30;76.10
39925;DHT22;25592;49.986;11.618;2023-07-22T09:20:43;20.10;76.40
39925;DHT22;25592;49.986;11.618;2023-07-22T09:23:33;20.20;75.50
39925;DHT22;25592;49.986;11.618;2023-07-22T09:26:18;20.30;76.10
39925;DHT22;25592;49.986;11.618;2023-07-22T09:29:04;20.50;75.60
39925;DHT22;25592;49.986;11.618;2023-07-22T09:31:51;20.80;75.50
39925;DHT22;25592;49.986;11.618;2023-07-22T09:34:37;20.90;75.00
39925;DHT22;25592;49.986;11.618;2023-07-22T09:37:23;21.00;74.30
39925;DHT22;25592;49.986;11.618;2023-07-22T09:40:25;21.30;74.70
39925;DHT22;25592;49.986;11.618;2023-07-22T09:43:11;21.40;73.70
39925;DHT22;25592;49.986;11.618;2023-07-22T09:46:09;21.70;73.70
39925;DHT22;25592;49.986;11.618;2023-07-22T09:49:02;21.80;73.70
39925;DHT22;25592;49.986;11.618;2023-07-22T09:51:50;22.10;73.40
39925;DHT22;25592;49.986;11.618;2023-07-22T09:54:48;22.40;72.60
39925;DHT22;25592;49.986;11.618;2023-07-22T09:57:35;22.50;72.30
39925;DHT22;25592;49.986;11.618;2023-07-22T10:00:28;22.30;72.00
39925;DHT22;25592;49.986;11.618;2023-07-22T10:03:16;22.20;72.60
39925;DHT22;25592;49.986;11.618;2023-07-22T10:06:05;22.50;73.40
39925;DHT22;25592;49.986;11.618;2023-07-22T10:08:51;22.50;71.30
39925;DHT22;25592;49.986;11.618;2023-07-22T10:11:37;22.70;71.80
39925;DHT22;25592;49.986;11.618;2023-07-22T10:14:24;22.60;71.70
39925;DHT22;25592;49.986;11.618;2023-07-22T10:17:11;22.60;71.90
39925;DHT22;25592;49.986;11.618;2023-07-22T10:19:57;22.90;71.00
39925;DHT22;25592;49.986;11.618;2023-07-22T10:22:43;22.90;70.40
39925;DHT22;25592;49.986;11.618;2023-07-22T10:25:30;22.50;71.90
39925;DHT22;25592;49.986;11.618;2023-07-22T10:28:15;22.70;70.90
39925;DHT22;25592;49.986;11.618;2023-07-22T10:31:02;22.60;69.70
39925;DHT22;25592;49.986;11.618;2023-07-22T10:33:48;22.30;71.20
39925;DHT22;25592;49.986;11.618;2023-07-22T10:36:35;22.20;70.50
39925;DHT22;25592;49.986;11.618;2023-07-22T10:39:28;22.30;71.20
39925;DHT22;25592;49.986;11.618;2023-07-22T10:42:24;22.40;71.20
39925;DHT22;25592;49.986;11.618;2023-07-22T10:45:36;22.40;70.80
39925;DHT22;25592;49.986;11.618;2023-07-22T10:48:33;22.70;70.40
39925;DHT22;25592;49.986;11.618;2023-07-22T10:51:19;23.30;69.70
39925;DHT22;25592;49.986;11.618;2023-07-22T10:54:14;23.50;67.50
39925;DHT22;25592;49.986;11.618;2023-07-22T10:57:25;23.80;67.80
39925;DHT22;25592;49.986;11.618;2023-07-22T11:00:17;24.00;67.30
39925;DHT22;25592;49.986;11.618;2023-07-22T11:03:11;24.30;65.90
39925;DHT22;25592;49.986;11.618;2023-07-22T11:05:57;24.40;66.90
39925;DHT22;25592;49.986;11.618;2023-07-22T11:08:43;24.00;65.60
39925;DHT22;25592;49.986;11.618;2023-07-22T11:11:45;23.30;66.70
39925;DHT22;25592;49.986;11.618;2023-07-22T11:14:35;23.00;66.80
39925;DHT22;25592;49.986;11.618;2023-07-22T11:17:30;23.00;66.90
39925;DHT22;25592;49.986;11.618;2023-07-22T11:20:16;22.90;67.50
39925;DHT22;25592;49.986;11.618;2023-07-22T11:23:01;23.00;67.10
39925;DHT22;25592;49.986;11.618;2023-07-22T11:25:47;23.30;67.70
39925;DHT22;25592;49.986;11.618;2023-07-22T11:28:33;23.30;67.80
39925;DHT22;25592;49.986;11.618;2023-07-22T11:31:18;23.90;67.90
39925;DHT22;25592;49.986;11.618;2023-07-22T11:34:04;24.30;66.80
39925;DHT22;25592;49.986;11.618;2023-07-22T11:36:51;23.80;66.60
39925;DHT22;25592;49.986;11.618;2023-07-22T11:39:37;24.00;67.20
39925;DHT22;25592;49.986;11.618;2023-07-22T11:42:23;24.20;66.20
39925;DHT22;25592;49.986;11.618;2023-07-22T11:45:10;24.30;66.80
39925;DHT22;25592;49.986;11.618;2023-07-22T11:47:55;24.30;65.50
39925;DHT22;25592;49.986;11.618;2023-07-22T11:50:41;24.50;65.50
39925;DHT22;25592;49.986;11.618;2023-07-22T11:53:27;24.80;65.10
39925;DHT22;25592;49.986;11.618;2023-07-22T11:56:17;24.80;65.10
39925;DHT22;25592;49.986;11.618;2023-07-22T11:59:02;25.00;64.60
39925;DHT22;25592;49.986;11.618;2023-07-22T12:01:49;25.20;64.40
39925;DHT22;25592;49.986;11.618;2023-07-22T12:04:35;25.60;63.90
39925;DHT22;25592;49.986;11.618;2023-07-22T12:07:34;25.90;62.90
39925;DHT22;25592;49.986;11.618;2023-07-22T12:10:20;26.30;62.90
39925;DHT22;25592;49.986;11.618;2023-07-22T12:13:08;26.70;61.90
39925;DHT22;25592;49.986;11.618;2023-07-22T12:16:05;26.50;61.40
39925;DHT22;25592;49.986;11.618;2023-07-22T12:18:54;26.00;61.50
39925;DHT22;25592;49.986;11.618;2023-07-22T12:21:40;25.70;62.10
39925;DHT22;25592;49.986;11.618;2023-07-22T12:24:30;25.90;62.50
39925;DHT22;25592;49.986;11.618;2023-07-22T12:27:15;25.90;60.40
39925;DHT22;25592;49.986;11.618;2023-07-22T12:30:00;25.90;60.40
39925;DHT22;25592;49.986;11.618;2023-07-22T12:32:47;26.10;60.80
39925;DHT22;25592;49.986;11.618;2023-07-22T12:35:33;25.70;60.90
39925;DHT22;25592;49.986;11.618;2023-07-22T12:38:18;25.50;61.80
39925;DHT22;25592;49.986;11.618;2023-07-22T12:41:04;25.60;61.10
39925;DHT22;25592;49.986;11.618;2023-07-22T12:43:49;26.00;61.50
39925;DHT22;25592;49.986;11.618;2023-07-22T12:46:35;26.10;60.70
39925;DHT22;25592;49.986;11.618;2023-07-22T12:49:20;25.70;60.10
39925;DHT22;25592;49.986;11.618;2023-07-22T12:52:06;25.50;62.10
39925;DHT22;25592;49.986;11.618;2023-07-22T12:54:54;25.90;61.80
39925;DHT22;25592;49.986;11.618;2023-07-22T12:57:39;26.30;60.40
39925;DHT22;25592;49.986;11.618;2023-07-22T13:00:25;27.00;59.90
39925;DHT22;25592;49.986;11.618;2023-07-22T13:03:10;27.20;58.80
39925;DHT22;25592;49.986;11.618;2023-07-22T13:05:56;27.20;58.80
39925;DHT22;25592;49.986;11.618;2023-07-22T13:08:41;26.60;58.50
39925;DHT22;25592;49.986;11.618;2023-07-22T13:11:27;26.70;59.80
39925;DHT22;25592;49.986;11.618;2023-07-22T13:14:13;26.80;58.70
39925;DHT22;25592;49.986;11.618;2023-07-22T13:16:59;26.90;58.30
39925;DHT22;25592;49.986;11.618;2023-07-22T13:19:45;27.00;58.70
39925;DHT22;25592;49.986;11.618;2023-07-22T13:22:30;27.00;58.60
39925;DHT22;25592;49.986;11.618;2023-07-22T13:25:16;27.20;57.60
39925;DHT22;25592;49.986;11.618;2023-07-22T13:28:01;27.20;57.70
39925;DHT22;25592;49.986;11.618;2023-07-22T13:30:47;27.00;57.60
39925;DHT22;25592;49.986;11.618;2023-07-22T13:33:32;26.70;58.70
39925;DHT22;25592;49.986;11.618;2023-07-22T13:36:18;26.80;58.50
39925;DHT22;25592;49.986;11.618;2023-07-22T13:39:03;26.90;57.40
39925;DHT22;25592;49.986;11.618;2023-07-22T13:41:49;27.20;58.00
39925;DHT22;25592;49.986;11.618;2023-07-22T13:44:35;27.40;56.50
39925;DHT22;25592;49.986;11.618;2023-07-22T13:47:24;27.50;57.00
39925;DHT22;25592;49.986;11.618;2023-07-22T13:50:09;26.90;57.60
39925;DHT22;25592;49.986;11.618;2023-07-22T13:52:55;26.70;58.80
39925;DHT22;25592;49.986;11.618;2023-07-22T13:55:40;26.60;58.40
39925;DHT22;25592;49.986;11.618;2023-07-22T13:58:30;26.40;58.30
39925;DHT22;25592;49.986;11.618;2023-07-22T14:01:15;26.20;58.70
39925;DHT22;25592;49.986;11.618;2023-07-22T14:04:01;26.10;59.10
39925;DHT22;25592;49.986;11.618;2023-07-22T14:06:46;26.10;59.80
39925;DHT22;25592;49.986;11.618;2023-07-22T14:09:32;26.40;59.50
39925;DHT22;25592;49.986;11.618;2023-07-22T14:12:17;26.60;59.60
39925;DHT22;25592;49.986;11.618;2023-07-22T14:15:03;27.00;59.40
39925;DHT22;25592;49.986;11.618;2023-07-22T14:17:51;26.90;57.70
39925;DHT22;25592;49.986;11.618;2023-07-22T14:20:37;27.00;58.70
39925;DHT22;25592;49.986;11.618;2023-07-22T14:23:22;26.80;57.60
39925;DHT22;25592;49.986;11.618;2023-07-22T14:26:08;27.20;58.80
39925;DHT22;25592;49.986;11.618;2023-07-22T14:28:53;27.10;57.70
39925;DHT22;25592;49.986;11.618;2023-07-22T14:31:39;26.60;58.50
39925;DHT22;25592;49.986;11.618;2023-07-22T14:34:24;26.20;58.90
39925;DHT22;25592;49.986;11.618;2023-07-22T14:37:10;26.20;59.60
39925;DHT22;25592;49.986;11.618;2023-07-22T14:39:55;26.00;58.80
39925;DHT22;25592;49.986;11.618;2023-07-22T14:42:41;26.10;59.60
39925;DHT22;25592;49.986;11.618;2023-07-22T14:45:26;26.40;59.10
39925;DHT22;25592;49.986;11.618;2023-07-22T14:48:12;26.60;59.10
39925;DHT22;25592;49.986;11.618;2023-07-22T14:50:57;26.80;58.30
39925;DHT22;25592;49.986;11.618;2023-07-22T14:53:43;26.90;58.30
39925;DHT22;25592;49.986;11.618;2023-07-22T14:56:28;26.80;58.20
39925;DHT22;25592;49.986;11.618;2023-07-22T14:59:15;26.80;58.60
39925;DHT22;25592;49.986;11.618;2023-07-22T15:02:01;26.50;59.20
39925;DHT22;25592;49.986;11.618;2023-07-22T15:04:46;26.50;58.70
39925;DHT22;25592;49.986;11.618;2023-07-22T15:07:32;26.20;59.20
39925;DHT22;25592;49.986;11.618;2023-07-22T15:10:17;26.20;59.50
39925;DHT22;25592;49.986;11.618;2023-07-22T15:13:03;25.90;59.50
39925;DHT22;25592;49.986;11.618;2023-07-22T15:15:48;25.70;60.20
39925;DHT22;25592;49.986;11.618;2023-07-22T15:18:34;25.70;60.20
39925;DHT22;25592;49.986;11.618;2023-07-22T15:21:19;25.60;60.20
39925;DHT22;25592;49.986;11.618;2023-07-22T15:24:05;25.30;60.30
39925;DHT22;25592;49.986;11.618;2023-07-22T15:26:50;25.40;60.10
39925;DHT22;25592;49.986;11.618;2023-07-22T15:29:36;25.40;59.90
39925;DHT22;25592;49.986;11.618;2023-07-22T15:32:21;25.70;60.50
39925;DHT22;25592;49.986;11.618;2023-07-22T15:35:07;26.10;60.00
39925;DHT22;25592;49.986;11.618;2023-07-22T15:37:52;26.20;59.40
39925;DHT22;25592;49.986;11.618;2023-07-22T15:40:39;25.90;59.50
39925;DHT22;25592;49.986;11.618;2023-07-22T15:43:25;25.70;60.00
39925;DHT22;25592;49.986;11.618;2023-07-22T15:46:10;25.90;59.80
39925;DHT22;25592;49.986;11.618;2023-07-22T15:49:27;26.10;59.70
39925;DHT22;25592;49.986;11.618;2023-07-22T15:52:12;26.10;60.10
39925;DHT22;25592;49.986;11.618;2023-07-22T15:54:58;26.20;60.20
39925;DHT22;25592;49.986;11.618;2023-07-22T15:57:43;26.20;60.20
39925;DHT22;25592;49.986;11.618;2023-07-22T16:00:30;26.20;60.10
39925;DHT22;25592;49.986;11.618;2023-07-22T16:03:16;25.70;59.60
39925;DHT22;25592;49.986;11.618;2023-07-22T16:06:01;25.40;60.30
39925;DHT22;25592;49.986;11.618;2023-07-22T16:08:47;25.20;60.50
39925;DHT22;25592;49.986;11.618;2023-07-22T16:11:33;25.30;60.90
39925;DHT22;25592;49.986;11.618;2023-07-22T16:14:18;25.90;61.10
39925;DHT22;25592;49.986;11.618;2023-07-22T16:17:04;26.20;60.70
39925;DHT22;25592;49.986;11.618;2023-07-22T16:19:49;26.20;61.00
39925;DHT22;25592;49.986;11.618;2023-07-22T16:22:35;26.40;60.60
39925;DHT22;25592;49.986;11.618;2023-07-22T16:25:23;26.40;59.90
39925;DHT22;25592;49.986;11.618;2023-07-22T16:28:09;26.40;60.50
39925;DHT22;25592;49.986;11.618;2023-07-22T16:30:55;26.40;59.40
39925;DHT22;25592;49.986;11.618;2023-07-22T16:33:40;26.20;59.30
39925;DHT22;25592;49.986;11.618;2023-07-22T16:36:26;26.00;59.90
39925;DHT22;25592;49.986;11.618;2023-07-22T16:39:12;25.80;59.90
39925;DHT22;25592;49.986;11.618;2023-07-22T16:41:57;25.90;60.00
39925;DHT22;25592;49.986;11.618;2023-07-22T16:44:42;26.00;60.50
39925;DHT22;25592;49.986;11.618;2023-07-22T16:47:28;26.00;60.20
39925;DHT22;25592;49.986;11.618;2023-07-22T16:50:13;26.00;60.60
39925;DHT22;25592;49.986;11.618;2023-07-22T16:52:59;26.10;60.00
39925;DHT22;25592;49.986;11.618;2023-07-22T16:55:47;26.10;60.30
39925;DHT22;25592;49.986;11.618;2023-07-22T16:58:33;26.20;60.40
39925;DHT22;25592;49.986;11.618;2023-07-22T17:01:18;26.40;59.50
39925;DHT22;25592;49.986;11.618;2023-07-22T17:04:04;26.60;60.30
39925;DHT22;25592;49.986;11.618;2023-07-22T17:06:52;26.60;59.70
39925;DHT22;25592;49.986;11.618;2023-07-22T17:09:38;26.60;60.00
39925;DHT22;25592;49.986;11.618;2023-07-22T17:12:23;26.60;60.00
39925;DHT22;25592;49.986;11.618;2023-07-22T17:15:09;26.40;59.90